Terminal Aerodrome Forecast
Issued by NWS Cleveland, OH

Home | Current Version | Previous Version | Graphics & Text | Print | Product List | Glossary On
Versions: 1 2 3 4 5 6 7 8 9 10 11 12 13 14 15 16 17
000
FTUS41 KCLE 241945 AAA
TAFCAK
TAF AMD
KCAK 241945Z 2420/2518 12010KT P6SM SCT007 OVC015
      TEMPO 2420/2424 4SM -RA BR OVC007
     FM250000 11012KT 5SM -SHRA BR OVC015
     FM250200 13012KT 3SM -SHRA OVC007
     FM250700 15007KT 3SM BR VCSH OVC007
     FM251400 20007KT 6SM BR VCSH OVC012=

USA.gov is the U.S. government's official web portal to all federal, state and local government web resources and services.